• pl
  • eng

Awiacja
WIADOMOŚCI
ostatnia aktualizacja: 26.09.2019 09:57
Uprzejmie informujemy, że od dnia 2.09.2019 jest dostępna w formie testowej prognoza GAFOR. Prosimy o przesyłanie na adres gafor@imgw.pl uwag i sugestii, które przyczynią się do rozwoju produktu.
Komunikaty METAR z lotnisk wojskowych. 23:01 14.11.2019

METAR EPCE 142230Z 13008KT 090V160 5000 BR OVC007 02/01
Q1017 RMK 022 093 8/8=

METAR EPDA 142230Z 09006KT 4000 BR NSC M01/M02
Q1016 RMK M012 096 0/0=

METAR EPDE 142230Z 06004KT 5000 BR SCT006 SCT010 OVC025 06/05 Q1015
RMK 058 095 8/4=

METAR EPIR 142230Z NIL=

METAR EPKS 142230Z 09014KT 9999 OVC010 04/04 Q1014 RMK 038 099 8/8=

METAR EPLK 142230Z 06005KT 010V110 6000 BKN008 OVC014 04/03 Q1014
RMK 041 095 8/7=

METAR EPLY 142230Z NIL=

METAR EPMB 142230Z NIL=

METAR EPMI 142230Z NIL=

METAR EPMM 142230Z NIL=

METAR EPNA 142230Z NIL=

METAR EPOK 142230Z 13011KT 9999 BKN015 05/02
Q1018 RMK 050 080 7/7=

METAR EPPR 142230Z 00000KT 5000 BR OVC017 03/02 Q1018 RMK 029 092
8/8=

METAR EPPW 142230Z 10012KT 7000 OVC008 04/02 Q1015 RMK 037 089 8/8 =

METAR EPRA 142230Z 04004KT 6000 BKN016 05/04 Q1015 RMK 051 093 7/7=

METAR EPSN 142230Z 12012KT 9999 OVC010 03/01 Q1015 RMK 029 087 8/8=

METAR EPTM 142230Z NIL=
Awiacja.imgw.pl jest pogodowym serwisem informacyjnym
Instytutu Meteorologii i Gospodarki Wodnej Państwowego Instytutu Badawczego.
Copyright IMGW PIB 2009-2019© Wszelkie prawa zastrzeżone.